createdAt,value
2019-02-26T00:00:47.337Z,9.73
2019-02-26T00:03:22.403Z,9.80
2019-02-26T00:05:56.841Z,9.30
2019-02-26T00:08:31.201Z,9.40
2019-02-26T00:11:03.810Z,10.00
2019-02-26T00:13:37.490Z,9.90
2019-02-26T00:16:12.599Z,9.03
2019-02-26T00:18:44.454Z,9.50
2019-02-26T00:21:16.965Z,10.07
2019-02-26T00:23:51.466Z,9.30
2019-02-26T00:26:23.421Z,10.03
2019-02-26T00:28:57.271Z,10.07
2019-02-26T00:31:30.581Z,9.67
2019-02-26T00:34:03.328Z,9.87
2019-02-26T00:36:36.395Z,10.47
2019-02-26T00:39:10.301Z,9.80
2019-02-26T00:41:43.680Z,9.53
2019-02-26T00:44:16.230Z,9.20
2019-02-26T00:46:49.041Z,9.63
2019-02-26T00:49:23.338Z,10.47
2019-02-26T00:51:55.940Z,9.93
2019-02-26T00:54:29.305Z,9.67
2019-02-26T00:57:03.481Z,9.83
2019-02-26T00:59:38.696Z,10.20
2019-02-26T01:02:10.951Z,9.87
2019-02-26T01:04:44.722Z,9.23
2019-02-26T01:07:19.126Z,10.00
2019-02-26T01:09:52.927Z,10.53
2019-02-26T01:12:26.223Z,10.33
2019-02-26T01:14:59.230Z,10.70
2019-02-26T01:17:33.459Z,11.30
2019-02-26T01:20:11.574Z,10.00
2019-02-26T01:22:45.358Z,10.40
2019-02-26T01:25:20.543Z,11.07
2019-02-26T01:27:53.230Z,10.53
2019-02-26T01:30:28.916Z,10.93
2019-02-26T01:33:03.224Z,11.27
2019-02-26T01:35:37.332Z,10.87
2019-02-26T01:38:12.060Z,10.97
2019-02-26T01:40:46.552Z,11.30
2019-02-26T01:43:18.728Z,10.10
2019-02-26T01:45:53.110Z,10.47
2019-02-26T01:48:25.503Z,10.30
2019-02-26T01:50:59.159Z,10.43
2019-02-26T01:53:32.993Z,10.20
2019-02-26T01:56:08.039Z,9.87
2019-02-26T01:58:40.701Z,10.03
2019-02-26T02:01:14.201Z,10.13
2019-02-26T02:03:48.789Z,10.20
2019-02-26T02:06:21.540Z,9.73
2019-02-26T02:08:55.681Z,9.60
2019-02-26T02:11:30.992Z,11.50
2019-02-26T02:14:05.755Z,11.20
2019-02-26T02:16:36.814Z,9.33
2019-02-26T02:19:09.409Z,10.07
2019-02-26T02:21:42.112Z,10.03
2019-02-26T02:24:15.569Z,9.63
2019-02-26T02:26:50.489Z,10.77
2019-02-26T02:29:24.538Z,8.70
2019-02-26T02:32:01.473Z,9.67
2019-02-26T02:34:33.008Z,9.53
2019-02-26T02:37:05.590Z,8.70
2019-02-26T02:39:38.352Z,9.50
2019-02-26T02:42:13.338Z,8.63
2019-02-26T02:44:46.892Z,10.30
2019-02-26T02:47:19.351Z,9.63
2019-02-26T02:49:52.015Z,8.30
2019-02-26T02:52:26.859Z,10.73
2019-02-26T02:54:58.545Z,10.57
2019-02-26T02:57:32.681Z,10.53
2019-02-26T03:00:08.403Z,11.07
2019-02-26T03:02:42.816Z,10.47
2019-02-26T03:05:15.553Z,11.23
2019-02-26T03:07:50.793Z,10.83
2019-02-26T03:10:25.993Z,11.00
2019-02-26T03:12:57.798Z,9.13
2019-02-26T03:15:33.740Z,10.47
2019-02-26T03:18:06.607Z,10.57
2019-02-26T03:20:51.408Z,10.67
2019-02-26T03:23:24.987Z,9.77
2019-02-26T03:25:57.503Z,8.93
2019-02-26T03:28:34.806Z,8.93
2019-02-26T03:31:04.200Z,8.87
2019-02-26T03:33:36.733Z,9.20
2019-02-26T03:36:11.200Z,8.77
2019-02-26T03:38:44.147Z,9.13
2019-02-26T03:41:20.371Z,9.23
2019-02-26T03:43:52.053Z,10.17
2019-02-26T03:46:24.592Z,8.83
2019-02-26T03:48:57.157Z,8.43
2019-02-26T03:51:29.780Z,8.83
2019-02-26T03:54:02.271Z,8.60
2019-02-26T03:56:34.832Z,9.17
2019-02-26T03:59:11.130Z,8.60
2019-02-26T04:01:41.461Z,8.03
2019-02-26T04:04:13.990Z,9.13
2019-02-26T04:06:47.221Z,8.90
2019-02-26T04:09:21.983Z,8.70
2019-02-26T04:11:55.398Z,8.93
2019-02-26T04:14:28.768Z,8.23
2019-02-26T04:17:04.140Z,8.23
2019-02-26T04:19:36.011Z,7.67
2019-02-26T04:22:30.387Z,7.93
2019-02-26T04:25:10.288Z,7.53
2019-02-26T04:28:20.476Z,7.83
2019-02-26T04:32:15.019Z,8.23
2019-02-26T04:35:17.013Z,7.90
2019-02-26T04:38:26.858Z,8.10
2019-02-26T04:41:34.621Z,8.20
2019-02-26T04:45:14.617Z,9.27
2019-02-26T04:47:49.585Z,7.30
2019-02-26T04:50:26.086Z,8.07
2019-02-26T04:52:58.795Z,7.77
2019-02-26T04:55:32.271Z,7.43
2019-02-26T04:58:04.379Z,7.93
2019-02-26T05:00:38.640Z,7.20
2019-02-26T05:03:14.188Z,7.90
2019-02-26T05:05:45.753Z,7.37
2019-02-26T05:08:18.016Z,7.37
2019-02-26T05:10:52.503Z,7.70
2019-02-26T05:13:26.531Z,7.13
2019-02-26T05:15:58.544Z,7.57
2019-02-26T05:18:32.706Z,7.70
2019-02-26T05:21:07.586Z,10.40
2019-02-26T05:23:39.147Z,7.47
2019-02-26T05:26:15.323Z,6.93
2019-02-26T05:28:46.904Z,7.67
2019-02-26T05:31:19.889Z,7.20
2019-02-26T05:33:54.610Z,6.97
2019-02-26T05:36:28.311Z,7.17
2019-02-26T05:39:02.299Z,6.30
2019-02-26T05:41:34.728Z,6.07
2019-02-26T05:44:10.272Z,6.27
2019-02-26T05:46:41.286Z,7.03
2019-02-26T05:49:16.416Z,6.20
2019-02-26T05:51:47.759Z,8.37
2019-02-26T05:54:21.732Z,9.60
2019-02-26T05:56:54.227Z,6.17
2019-02-26T05:59:26.784Z,5.93
2019-02-26T06:01:59.330Z,6.03
2019-02-26T06:04:34.926Z,6.50
2019-02-26T06:07:05.922Z,6.87
2019-02-26T06:09:38.428Z,8.10
2019-02-26T06:12:12.145Z,7.37
2019-02-26T06:14:44.404Z,5.43
2019-02-26T06:17:17.956Z,5.70
2019-02-26T06:19:51.598Z,5.40
2019-02-26T06:22:26.650Z,6.20
2019-02-26T06:25:06.949Z,6.87
2019-02-26T06:27:35.401Z,5.97
2019-02-26T06:30:11.558Z,5.50
2019-02-26T06:32:44.545Z,7.80
2019-02-26T06:35:19.418Z,7.07
2019-02-26T06:37:52.288Z,6.73
2019-02-26T06:40:24.622Z,5.70
2019-02-26T06:42:57.027Z,5.47
2019-02-26T06:45:29.735Z,5.17
2019-02-26T06:48:02.125Z,5.47
2019-02-26T06:50:36.404Z,8.47
2019-02-26T06:53:11.030Z,9.33
2019-02-26T06:55:43.098Z,6.17
2019-02-26T06:58:29.425Z,7.27
2019-02-26T07:01:02.386Z,5.60
2019-02-26T07:03:34.819Z,24.70
2019-02-26T07:06:07.374Z,6.07
2019-02-26T07:08:39.750Z,5.07
2019-02-26T07:11:12.238Z,6.00
2019-02-26T07:13:46.974Z,5.63
2019-02-26T07:16:20.738Z,8.70
2019-02-26T07:18:53.695Z,5.93
2019-02-26T07:21:26.090Z,5.60
2019-02-26T07:23:58.839Z,4.97
2019-02-26T07:26:32.720Z,6.03
2019-02-26T07:29:05.852Z,5.37
2019-02-26T07:31:39.504Z,4.60
2019-02-26T07:34:12.047Z,5.57
2019-02-26T07:36:47.941Z,4.97
2019-02-26T07:39:22.759Z,5.20
2019-02-26T07:41:55.384Z,5.27
2019-02-26T07:44:28.441Z,5.70
2019-02-26T07:47:03.653Z,5.23
2019-02-26T07:49:35.573Z,5.60
2019-02-26T07:52:08.755Z,6.07
2019-02-26T07:54:42.776Z,5.40
2019-02-26T07:57:17.954Z,5.27
2019-02-26T07:59:50.263Z,6.17
2019-02-26T08:02:22.834Z,5.83
2019-02-26T08:04:55.276Z,5.30
2019-02-26T08:07:28.520Z,5.27
2019-02-26T08:10:01.638Z,5.10
2019-02-26T08:12:35.570Z,5.10
2019-02-26T08:15:10.927Z,5.20
2019-02-26T08:17:47.858Z,5.23
2019-02-26T08:20:18.965Z,5.50
2019-02-26T08:22:53.648Z,6.23
2019-02-26T08:25:25.795Z,4.70
2019-02-26T08:28:01.014Z,5.23
2019-02-26T08:30:32.858Z,5.30
2019-02-26T08:33:07.315Z,5.60
2019-02-26T08:35:39.275Z,5.03
2019-02-26T08:38:11.884Z,6.13
2019-02-26T08:40:44.582Z,5.00
2019-02-26T08:43:16.867Z,4.97
2019-02-26T08:45:49.264Z,5.27
2019-02-26T08:48:22.837Z,5.47
2019-02-26T08:50:56.150Z,6.40
2019-02-26T08:53:29.025Z,5.30
2019-02-26T08:56:04.083Z,5.27
2019-02-26T08:58:36.615Z,5.87
2019-02-26T09:01:08.994Z,5.60
2019-02-26T09:03:41.913Z,6.10
2019-02-26T09:06:16.106Z,26.53
2019-02-26T09:08:48.538Z,16.47
2019-02-26T09:11:21.051Z,6.75
2019-02-26T09:13:53.561Z,6.20
2019-02-26T09:16:28.278Z,6.40
2019-02-26T09:19:00.449Z,6.27
2019-02-26T09:21:36.652Z,5.97
2019-02-26T09:24:07.818Z,6.80
2019-02-26T09:26:40.729Z,7.97
2019-02-26T09:29:15.078Z,6.83
2019-02-26T09:31:47.882Z,7.33
2019-02-26T09:34:20.232Z,7.00
2019-02-26T09:36:53.052Z,7.50
2019-02-26T09:39:28.969Z,7.33
2019-02-26T09:42:02.379Z,6.67
2019-02-26T09:44:35.895Z,7.30
2019-02-26T09:47:08.428Z,7.07
2019-02-26T09:49:40.924Z,8.40
2019-02-26T09:52:13.272Z,8.23
2019-02-26T09:54:48.102Z,8.97
2019-02-26T09:57:21.157Z,8.40
2019-02-26T09:59:55.233Z,8.53
2019-02-26T10:02:28.776Z,9.30
2019-02-26T10:05:01.538Z,10.90
2019-02-26T10:07:36.175Z,9.80
2019-02-26T10:10:12.335Z,9.27
2019-02-26T10:12:45.495Z,8.83
2019-02-26T10:15:18.524Z,9.03
2019-02-26T10:17:50.905Z,10.13
2019-02-26T10:20:26.204Z,11.53
2019-02-26T10:23:00.763Z,11.03
2019-02-26T10:25:34.778Z,10.23
2019-02-26T10:28:09.642Z,10.05
2019-02-26T10:30:41.708Z,10.38
2019-02-26T10:33:17.382Z,9.15
2019-02-26T10:35:49.887Z,11.63
2019-02-26T10:38:24.065Z,10.63
2019-02-26T10:40:59.065Z,12.07
2019-02-26T10:43:30.759Z,9.90
2019-02-26T10:46:03.174Z,10.40
2019-02-26T10:48:35.651Z,9.93
2019-02-26T10:51:08.011Z,9.90
2019-02-26T10:53:40.397Z,8.98
2019-02-26T10:56:13.124Z,9.08
2019-02-26T10:58:45.614Z,9.10
2019-02-26T11:01:22.716Z,9.23
2019-02-26T11:03:55.073Z,10.05
2019-02-26T11:06:27.517Z,9.20
2019-02-26T11:09:01.756Z,9.48
2019-02-26T11:11:35.626Z,9.10
2019-02-26T11:14:10.676Z,8.40
2019-02-26T11:16:42.599Z,7.75
2019-02-26T11:19:15.428Z,9.45
2019-02-26T11:21:50.712Z,10.75
2019-02-26T11:24:23.869Z,8.33
2019-02-26T11:26:57.183Z,9.53
2019-02-26T11:29:30.465Z,9.53
2019-02-26T11:32:04.623Z,8.63
2019-02-26T11:34:38.298Z,8.30
2019-02-26T11:37:11.064Z,9.23
2019-02-26T11:39:43.738Z,8.28
2019-02-26T11:42:18.642Z,8.05
2019-02-26T11:44:51.106Z,8.60
2019-02-26T11:47:23.472Z,8.73
2019-02-26T11:49:56.045Z,9.38
2019-02-26T11:52:28.379Z,9.18
2019-02-26T11:55:04.750Z,9.18
2019-02-26T11:57:37.670Z,8.80
2019-02-26T12:00:24.305Z,8.67
2019-02-26T12:02:49.262Z,9.83
2019-02-26T12:05:24.225Z,9.27
2019-02-26T12:07:56.843Z,8.63
2019-02-26T12:10:32.507Z,9.10
2019-02-26T12:13:04.901Z,9.73
2019-02-26T12:15:39.885Z,9.43
2019-02-26T12:18:13.067Z,9.13
2019-02-26T12:20:46.579Z,8.73
2019-02-26T12:23:22.753Z,9.30
2019-02-26T12:25:55.509Z,9.30
2019-02-26T12:28:31.250Z,8.73
2019-02-26T12:31:04.331Z,8.87
2019-02-26T12:33:36.656Z,9.07
2019-02-26T12:36:10.296Z,8.57
2019-02-26T12:38:43.130Z,8.73
2019-02-26T12:41:16.418Z,8.70
2019-02-26T12:43:49.771Z,8.87
2019-02-26T12:46:24.433Z,8.00
2019-02-26T12:48:57.212Z,8.63
2019-02-26T12:51:31.931Z,8.17
2019-02-26T12:54:06.389Z,8.40
2019-02-26T12:56:38.108Z,8.40
2019-02-26T12:59:10.609Z,7.77
2019-02-26T13:01:46.360Z,7.53
2019-02-26T13:04:21.433Z,8.70
2019-02-26T13:06:52.122Z,8.53
2019-02-26T13:09:26.783Z,7.97
2019-02-26T13:12:02.395Z,7.67
2019-02-26T13:14:34.179Z,8.40
2019-02-26T13:17:06.898Z,7.60
2019-02-26T13:19:39.682Z,7.77
2019-02-26T13:22:17.194Z,8.27
2019-02-26T13:24:46.805Z,8.00
2019-02-26T13:27:38.857Z,8.30
2019-02-26T13:30:16.760Z,8.27
2019-02-26T13:32:56.337Z,8.40
2019-02-26T13:35:23.739Z,8.03
2019-02-26T13:37:56.536Z,7.90
2019-02-26T13:40:29.160Z,8.83
2019-02-26T13:45:34.407Z,8.93
2019-02-26T13:48:07.348Z,8.37
2019-02-26T13:50:39.711Z,8.40
2019-02-26T13:53:12.006Z,8.90
2019-02-26T13:55:44.546Z,8.20
2019-02-26T13:58:17.671Z,9.40
2019-02-26T14:00:50.309Z,8.10
2019-02-26T14:03:22.656Z,8.63
2019-02-26T14:05:55.026Z,8.27
2019-02-26T14:08:27.649Z,9.20
2019-02-26T14:11:00.568Z,8.43
2019-02-26T14:13:33.656Z,7.80
2019-02-26T14:16:06.096Z,8.80
2019-02-26T14:18:38.495Z,8.90
2019-02-26T14:21:11.042Z,8.43
2019-02-26T14:23:43.456Z,9.00
2019-02-26T14:26:16.036Z,8.93
2019-02-26T14:28:49.158Z,9.00
2019-02-26T14:31:21.866Z,8.20
2019-02-26T14:33:54.278Z,8.63
2019-02-26T14:36:26.753Z,9.00
2019-02-26T14:38:59.272Z,8.63
2019-02-26T14:41:32.116Z,9.70
2019-02-26T14:44:04.788Z,8.47
2019-02-26T14:46:37.067Z,9.23
2019-02-26T14:49:09.599Z,9.23
2019-02-26T14:51:42.113Z,8.00
2019-02-26T14:54:14.426Z,9.33
2019-02-26T14:56:48.226Z,9.13
2019-02-26T14:59:30.149Z,9.13
2019-02-26T15:02:02.574Z,8.60
2019-02-26T15:04:35.751Z,8.60
2019-02-26T15:07:08.336Z,8.30
2019-02-26T15:09:40.862Z,7.97
2019-02-26T15:12:13.320Z,8.40
2019-02-26T15:14:48.712Z,8.30
2019-02-26T15:17:20.155Z,10.90
2019-02-26T15:19:53.294Z,8.50
2019-02-26T15:22:25.902Z,17.77
2019-02-26T15:24:58.478Z,8.97
2019-02-26T15:27:36.843Z,8.43
2019-02-26T15:30:05.271Z,8.00
2019-02-26T15:32:37.676Z,7.87
2019-02-26T15:35:10.602Z,7.70
2019-02-26T15:37:43.432Z,8.70
2019-02-26T15:40:16.337Z,8.40
2019-02-26T15:42:52.315Z,9.40
2019-02-26T15:45:24.153Z,8.50
2019-02-26T15:47:56.735Z,8.20
2019-02-26T15:50:29.423Z,7.73
2019-02-26T15:53:02.086Z,9.23
2019-02-26T15:55:34.758Z,9.13
2019-02-26T15:58:07.131Z,8.50
2019-02-26T16:00:39.774Z,9.00
2019-02-26T16:03:12.205Z,9.13
2019-02-26T16:05:44.540Z,10.33
2019-02-26T16:08:16.914Z,9.17
2019-02-26T16:10:49.346Z,9.63
2019-02-26T16:13:21.848Z,8.47
2019-02-26T16:15:54.193Z,9.40
2019-02-26T16:18:27.605Z,8.83
2019-02-26T16:21:01.130Z,8.70
2019-02-26T16:23:33.593Z,14.83
2019-02-26T16:26:08.083Z,10.10
2019-02-26T16:28:40.250Z,10.30
2019-02-26T16:31:12.595Z,8.70
2019-02-26T16:33:46.712Z,9.17
2019-02-26T16:36:19.521Z,8.70
2019-02-26T16:38:52.021Z,8.50
2019-02-26T16:41:24.574Z,9.20
2019-02-26T16:43:57.136Z,8.00
2019-02-26T16:46:29.917Z,9.27
2019-02-26T16:49:02.731Z,8.40
2019-02-26T16:51:35.184Z,8.63
2019-02-26T16:54:16.961Z,8.23
2019-02-26T16:56:49.619Z,8.80
2019-02-26T16:59:22.230Z,9.93
2019-02-26T17:01:54.985Z,8.20
2019-02-26T17:04:28.210Z,8.10
2019-02-26T17:07:00.639Z,8.10
2019-02-26T17:09:33.180Z,12.37
2019-02-26T17:12:05.879Z,16.00
2019-02-26T17:14:38.276Z,11.33
2019-02-26T17:17:10.889Z,12.97
2019-02-26T17:19:43.597Z,20.13
2019-02-26T17:22:15.927Z,8.33
2019-02-26T17:24:48.316Z,9.50
2019-02-26T17:27:20.650Z,10.50
2019-02-26T17:29:53.299Z,8.30
2019-02-26T17:32:25.653Z,10.17
2019-02-26T17:34:58.093Z,10.37
2019-02-26T17:37:30.512Z,8.00
2019-02-26T17:40:03.849Z,8.60
2019-02-26T17:42:36.557Z,9.40
2019-02-26T17:45:11.920Z,8.27
2019-02-26T17:47:44.272Z,10.30
2019-02-26T17:50:26.578Z,8.57
2019-02-26T17:52:59.271Z,10.30
2019-02-26T17:55:31.999Z,9.23
2019-02-26T17:58:04.770Z,9.43
2019-02-26T18:00:39.729Z,8.60
2019-02-26T18:03:12.332Z,10.27
2019-02-26T18:05:51.262Z,10.40
2019-02-26T18:08:19.640Z,9.17
2019-02-26T18:10:52.350Z,10.20
2019-02-26T18:13:24.714Z,9.07
2019-02-26T18:15:59.137Z,9.13
2019-02-26T18:18:34.259Z,9.47
2019-02-26T18:21:06.593Z,9.30
2019-02-26T18:23:39.237Z,9.30
2019-02-26T18:26:11.679Z,9.43
2019-02-26T18:28:47.622Z,8.73
2019-02-26T18:31:26.256Z,9.73
2019-02-26T18:33:53.036Z,8.83
2019-02-26T18:36:25.730Z,9.67
2019-02-26T18:38:58.406Z,10.13
2019-02-26T18:41:35.067Z,10.07
2019-02-26T18:44:09.615Z,10.53
2019-02-26T18:46:42.229Z,10.93
2019-02-26T18:49:14.615Z,9.27
2019-02-26T18:51:49.606Z,9.73
2019-02-26T18:54:21.710Z,10.00
2019-02-26T18:56:54.230Z,9.83
2019-02-26T18:59:27.113Z,9.00
2019-02-26T19:02:03.346Z,10.20
2019-02-26T19:04:34.935Z,10.23
2019-02-26T19:07:07.365Z,9.97
2019-02-26T19:09:39.957Z,9.33
2019-02-26T19:12:12.542Z,9.80
2019-02-26T19:14:45.275Z,20.37
2019-02-26T19:17:17.983Z,10.40
2019-02-26T19:19:50.808Z,11.33
2019-02-26T19:22:26.529Z,11.33
2019-02-26T19:24:57.447Z,12.17
2019-02-26T19:27:30.039Z,10.30
2019-02-26T19:30:04.654Z,15.13
2019-02-26T19:32:36.720Z,14.70
2019-02-26T19:35:12.452Z,14.43
2019-02-26T19:37:44.074Z,10.13
2019-02-26T19:40:19.127Z,12.70
2019-02-26T19:42:52.925Z,12.90
2019-02-26T19:45:26.158Z,11.73
2019-02-26T19:47:58.674Z,10.57
2019-02-26T19:50:31.027Z,11.00
2019-02-26T19:53:03.736Z,11.70
2019-02-26T19:55:37.622Z,11.90
2019-02-26T19:58:09.992Z,10.33
2019-02-26T20:00:42.575Z,10.50
2019-02-26T20:03:15.763Z,10.47
2019-02-26T20:05:48.450Z,10.60
2019-02-26T20:08:21.601Z,11.77
2019-02-26T20:10:54.212Z,13.17
2019-02-26T20:13:27.138Z,17.53
2019-02-26T20:15:59.837Z,10.87
2019-02-26T20:18:32.260Z,10.63
2019-02-26T20:21:04.795Z,11.27
2019-02-26T20:23:37.148Z,10.43
2019-02-26T20:26:09.816Z,9.80
2019-02-26T20:28:42.322Z,10.57
2019-02-26T20:31:14.840Z,10.37
2019-02-26T20:33:47.490Z,10.50
2019-02-26T20:36:19.984Z,10.73
2019-02-26T20:38:52.475Z,11.87
2019-02-26T20:41:25.224Z,15.70
2019-02-26T20:43:57.715Z,11.47
2019-02-26T20:46:30.982Z,10.80
2019-02-26T20:49:03.971Z,11.60
2019-02-26T20:51:36.550Z,11.00
2019-02-26T20:54:11.471Z,10.80
2019-02-26T20:56:44.844Z,11.17
2019-02-26T20:59:18.533Z,11.50
2019-02-26T21:01:51.580Z,11.37
2019-02-26T21:04:24.366Z,11.70
2019-02-26T21:06:57.253Z,11.37
2019-02-26T21:09:29.887Z,11.60
2019-02-26T21:12:02.314Z,11.50
2019-02-26T21:14:35.115Z,11.17
2019-02-26T21:17:07.719Z,11.80
2019-02-26T21:19:40.278Z,11.60
2019-02-26T21:22:13.070Z,11.97
2019-02-26T21:24:47.466Z,10.87
2019-02-26T21:27:21.019Z,11.63
2019-02-26T21:29:53.906Z,11.20
2019-02-26T21:32:26.616Z,11.33
2019-02-26T21:34:59.320Z,11.93
2019-02-26T21:37:32.816Z,11.77
2019-02-26T21:40:07.196Z,11.10
2019-02-26T21:42:39.720Z,10.63
2019-02-26T21:45:16.004Z,11.63
2019-02-26T21:47:47.977Z,10.70
2019-02-26T21:50:22.888Z,11.80
2019-02-26T21:52:59.423Z,11.13
2019-02-26T21:55:33.714Z,10.87
2019-02-26T21:58:04.204Z,12.13
2019-02-26T22:00:39.112Z,11.63
2019-02-26T22:03:11.212Z,11.17
2019-02-26T22:05:43.737Z,12.77
2019-02-26T22:08:16.343Z,15.10
2019-02-26T22:10:48.998Z,27.07
2019-02-26T22:13:21.557Z,13.20
2019-02-26T22:15:54.033Z,11.87
2019-02-26T22:18:31.229Z,11.33
2019-02-26T22:21:00.859Z,12.23
2019-02-26T22:23:34.299Z,12.47
2019-02-26T22:26:07.639Z,12.03
2019-02-26T22:28:42.105Z,14.00
2019-02-26T22:31:14.820Z,11.40
2019-02-26T22:33:47.570Z,12.03
2019-02-26T22:36:20.175Z,11.70
2019-02-26T22:38:52.644Z,11.97
2019-02-26T22:41:27.063Z,9.67
2019-02-26T22:43:59.497Z,11.30
2019-02-26T22:46:33.812Z,11.70
2019-02-26T22:49:06.043Z,11.47
2019-02-26T22:51:38.464Z,10.77
2019-02-26T22:54:11.099Z,10.83
2019-02-26T22:56:43.755Z,12.77
2019-02-26T22:59:18.961Z,10.60
2019-02-26T23:01:51.948Z,11.90
2019-02-26T23:04:24.640Z,12.10
2019-02-26T23:06:57.223Z,11.07
2019-02-26T23:09:30.666Z,11.40
2019-02-26T23:12:05.113Z,11.87
2019-02-26T23:14:39.335Z,11.87
2019-02-26T23:17:12.585Z,11.17
2019-02-26T23:19:44.966Z,10.80
2019-02-26T23:22:17.881Z,11.23
2019-02-26T23:24:50.694Z,11.33
2019-02-26T23:27:23.094Z,11.47
2019-02-26T23:29:56.434Z,12.13
2019-02-26T23:32:29.512Z,14.03
2019-02-26T23:35:08.861Z,14.73
2019-02-26T23:37:41.307Z,12.60
2019-02-26T23:40:14.734Z,12.20
2019-02-26T23:42:47.278Z,16.70
2019-02-26T23:45:23.939Z,16.97
2019-02-26T23:47:53.958Z,14.93
2019-02-26T23:50:26.670Z,17.37
2019-02-26T23:53:01.099Z,18.50
2019-02-26T23:55:33.586Z,16.30
2019-02-26T23:58:06.510Z,14.60
